Главная страница
METAR-TAF:

METAR-TAF

Аэропорты :

Millville, Нью-Джерси, США

широта: 39-21-58N, долгота: 075-04-42W, высота над уровнем моря: 26 м

Текущие метеонаблюдения

Эта сводка был подготовлена 8 минут назад, в 01:54 UTC
Ветер 8 Узел от северный
Температура -1°C
Влажность 54%
Давление 1021 hPa
Видимость: 16.1 км
ясное небо

METAR: KMIV 130154Z AUTO 35008KT 10SM CLR M01/M09 A3016 RMK AO2 SLP214 T10111089

Время: 21:02 (02:02 UTC)

Прогноз

Эта сводка был подготовлена 2 часа и 24 минут назад, в 23:38 UTC
Прогноз действительный с 13-го 00 UTC до 13-го 24 UTC
Ветер 11 Узел от северно-северо-западный
Видимость: 10 км
ясное небо
С 13-го 0700 UTC
Ветер 9 Узел от северно-северо-западный
Видимость: 10 км
ясное небо
С 13-го 2200 UTC
Ветер 4 Узел переменных направлений
Видимость: 10 км
ясное небо

TAF: KMIV 122338Z 1300/1324 34011KT P6SM SKC FM130700 33009KT P6SM SKC FM132200 VRB04KT P6SM SKC

Метеонаблюдения и прогнозы для более 4000 аэропортов (сводки METAR и TAF).

Имеющиеся станции представлены на карте желтыми и красными точками.

Чтобы увидеть название станции, наведите на нее мышь.

Затем щелкните, чтобы увидеть метеонаблюдения и метеопрогнозы.

Управление картой: чтобы увеличить масштаб, щелкните зеленые кнопки с черным крестиком; чтобы уменьшить масштаб, щелкните зеленую кнопку с тире; для просмотра соседних карт щелкайте зеленые стрелки.


METAR-TAF: